Time;durP1;ratioP1;P1;durP2;ratioP2;P2;SDS_P1;SDS_P2;PMS_P1;PMS_P2;Temp;Humidity;BMP_temperature;BMP_pressure;BME280_temperature;BME280_humidity;BME280_pressure;Samples;Min_cycle;Max_cycle;Signal;HPM_P1;HPM_P2
2022/10/28 00:01:22;;;;;;;11.00;5.43;;;;;;;;;;5014115;28;20941;-61
2022/10/28 00:03:49;;;;;;;5.43;4.70;;;;;;;;;;5014277;28;20452;-61
2022/10/28 00:06:17;;;;;;;5.43;4.90;;;;;;;;;;5014519;28;20533;-61
2022/10/28 00:08:44;;;;;;;4.73;4.33;;;;;;;;;;5013966;28;20520;-61
2022/10/28 00:11:13;;;;;;;7.10;4.63;;;;;;;;;;5014202;28;20537;-62
2022/10/28 00:13:41;;;;;;;8.00;4.77;;;;;;;;;;5013936;28;20219;-61
2022/10/28 00:16:09;;;;;;;5.40;4.90;;;;;;;;;;5014068;28;20806;-61
2022/10/28 00:18:38;;;;;;;5.20;4.70;;;;;;;;;;5013399;28;20464;-61
2022/10/28 00:21:06;;;;;;;5.23;4.73;;;;;;;;;;5013311;28;20454;-61
2022/10/28 00:23:33;;;;;;;7.63;5.13;;;;;;;;;;5013918;28;20496;-62
2022/10/28 00:26:06;;;;;;;6.37;5.87;;;;;;;;;;5013900;28;20450;-61
2022/10/28 00:28:34;;;;;;;6.13;4.53;;;;;;;;;;5013902;28;20881;-61
2022/10/28 00:31:05;;;;;;;5.20;4.77;;;;;;;;;;5013784;28;20897;-61
2022/10/28 00:33:32;;;;;;;5.23;4.83;;;;;;;;;;5013558;28;20474;-61
2022/10/28 00:36:07;;;;;;;5.07;4.57;;;;;;;;;;5013537;28;20805;-61
2022/10/28 00:38:36;;;;;;;5.90;5.37;;;;;;;;;;5013622;28;20550;-61
2022/10/28 00:41:03;;;;;;;5.53;5.03;;;;;;;;;;5013609;28;20553;-61
2022/10/28 00:43:35;;;;;;;5.50;4.90;;;;;;;;;;5013435;28;20903;-61
2022/10/28 00:46:02;;;;;;;5.53;5.13;;;;;;;;;;5013456;28;20454;-62
2022/10/28 00:48:29;;;;;;;5.63;4.70;;;;;;;;;;5013782;28;20451;-61
2022/10/28 00:50:56;;;;;;;5.50;5.00;;;;;;;;;;5013532;28;20282;-61
2022/10/28 00:53:25;;;;;;;5.40;4.90;;;;;;;;;;5013341;28;20525;-61
2022/10/28 00:55:52;;;;;;;5.03;4.53;;;;;;;;;;5013615;28;20450;-61
2022/10/28 00:58:21;;;;;;;5.60;4.90;;;;;;;;;;5013298;28;20450;-61
2022/10/28 01:00:49;;;;;;;7.10;4.90;;;;;;;;;;5013190;28;20457;-61
2022/10/28 01:03:16;;;;;;;5.47;5.00;;;;;;;;;;5013372;28;20456;-61
2022/10/28 01:05:44;;;;;;;5.30;4.83;;;;;;;;;;5013300;28;20548;-61
2022/10/28 01:08:12;;;;;;;4.50;4.17;;;;;;;;;;5013201;28;20945;-61
2022/10/28 01:10:44;;;;;;;6.00;5.50;;;;;;;;;;5013231;28;20537;-61
2022/10/28 01:13:14;;;;;;;6.27;5.10;;;;;;;;;;5013047;28;20452;-61
2022/10/28 01:15:45;;;;;;;6.10;5.60;;;;;;;;;;5013237;28;20581;-61
2022/10/28 01:18:20;;;;;;;7.53;5.10;;;;;;;;;;5013259;28;20882;-61
2022/10/28 01:21:04;;;;;;;8.13;5.00;;;;;;;;;;5013163;28;20454;-61
2022/10/28 01:23:35;;;;;;;6.57;5.87;;;;;;;;;;5012942;28;21078;-62
2022/10/28 01:26:21;;;;;;;6.93;5.33;;;;;;;;;;5013228;28;20450;-61
2022/10/28 01:29:15;;;;;;;7.55;6.68;;;;;;;;;;5013211;28;20464;-61
2022/10/28 01:31:44;;;;;;;6.37;4.60;;;;;;;;;;5015736;28;20187;-61
2022/10/28 01:34:13;;;;;;;5.63;4.83;;;;;;;;;;5016787;28;20492;-61
2022/10/28 01:36:42;;;;;;;5.00;4.60;;;;;;;;;;5016854;28;20464;-61
2022/10/28 01:39:13;;;;;;;7.63;5.27;;;;;;;;;;5016891;28;20446;-61
2022/10/28 01:41:47;;;;;;;5.53;4.93;;;;;;;;;;5017054;28;20983;-61
2022/10/28 01:44:20;;;;;;;7.73;4.57;;;;;;;;;;5016777;28;20568;-61
2022/10/28 01:46:54;;;;;;;5.83;5.23;;;;;;;;;;5016616;28;20460;-61
2022/10/28 01:49:23;;;;;;;4.93;4.53;;;;;;;;;;5016829;28;20450;-61
2022/10/28 01:51:53;;;;;;;4.90;4.50;;;;;;;;;;5016684;28;20565;-61
2022/10/28 01:54:22;;;;;;;5.32;4.82;;;;;;;;;;5016507;28;20483;-61
2022/10/28 01:56:49;;;;;;;5.63;5.07;;;;;;;;;;5016473;28;20191;-61
2022/10/28 01:59:18;;;;;;;7.70;5.10;;;;;;;;;;5016398;28;20493;-61
2022/10/28 02:01:45;;;;;;;5.50;5.07;;;;;;;;;;5016527;28;20452;-61
2022/10/28 02:04:13;;;;;;;6.17;4.50;;;;;;;;;;5016486;28;20482;-61
2022/10/28 02:06:41;;;;;;;8.20;5.43;;;;;;;;;;5016450;28;20808;-61
2022/10/28 02:09:13;;;;;;;5.22;4.75;;;;;;;;;;5016233;28;20885;-61
2022/10/28 02:11:47;;;;;;;5.33;4.93;;;;;;;;;;5016218;28;20282;-61
2022/10/28 02:14:21;;;;;;;8.70;5.37;;;;;;;;;;5016723;28;20561;-61
2022/10/28 02:16:49;;;;;;;5.00;4.50;;;;;;;;;;5016272;28;20536;-61
2022/10/28 02:19:25;;;;;;;11.07;5.67;;;;;;;;;;5016127;28;20536;-61
2022/10/28 02:21:58;;;;;;;7.27;4.67;;;;;;;;;;5016043;28;20801;-62
2022/10/28 02:24:32;;;;;;;10.07;5.30;;;;;;;;;;5015959;28;21023;-62
2022/10/28 02:27:03;;;;;;;6.30;4.80;;;;;;;;;;5016198;28;20960;-61
2022/10/28 02:29:31;;;;;;;5.70;5.20;;;;;;;;;;5016074;28;20546;-61
2022/10/28 02:32:00;;;;;;;6.77;5.50;;;;;;;;;;5015868;28;20453;-61
2022/10/28 02:34:30;;;;;;;5.43;4.73;;;;;;;;;;5015702;28;20500;-62
2022/10/28 02:36:58;;;;;;;4.97;4.50;;;;;;;;;;5015701;28;20450;-61
2022/10/28 02:39:28;;;;;;;5.97;5.03;;;;;;;;;;5015942;28;20450;-62
2022/10/28 02:41:58;;;;;;;5.90;5.40;;;;;;;;;;5014763;28;20925;-61
2022/10/28 02:44:26;;;;;;;6.10;5.05;;;;;;;;;;5015557;28;20488;-61
2022/10/28 02:46:55;;;;;;;5.40;4.90;;;;;;;;;;5015481;28;20457;-61
2022/10/28 02:49:23;;;;;;;5.70;5.20;;;;;;;;;;5015998;28;20602;-61
2022/10/28 02:51:54;;;;;;;5.37;4.87;;;;;;;;;;5015719;28;20983;-61
2022/10/28 02:54:23;;;;;;;5.70;5.13;;;;;;;;;;5015772;28;20543;-61
2022/10/28 02:56:52;;;;;;;6.00;5.40;;;;;;;;;;5015829;28;20882;-61
2022/10/28 02:59:19;;;;;;;7.83;5.53;;;;;;;;;;5015353;28;20456;-61
2022/10/28 03:01:46;;;;;;;6.40;5.30;;;;;;;;;;5015511;28;20445;-61
2022/10/28 03:04:13;;;;;;;5.77;5.27;;;;;;;;;;5015429;28;20445;-61
2022/10/28 03:06:40;;;;;;;5.57;5.07;;;;;;;;;;5015280;28;20457;-61
2022/10/28 03:09:08;;;;;;;6.13;5.53;;;;;;;;;;5015136;28;20941;-61
2022/10/28 03:11:35;;;;;;;7.60;5.83;;;;;;;;;;5015051;28;20450;-61
2022/10/28 03:14:02;;;;;;;6.70;6.03;;;;;;;;;;5014938;28;20537;-62
2022/10/28 03:16:29;;;;;;;5.67;5.23;;;;;;;;;;5015162;28;20507;-62
2022/10/28 03:18:56;;;;;;;6.10;5.57;;;;;;;;;;5015179;28;20450;-61
2022/10/28 03:21:23;;;;;;;8.90;5.13;;;;;;;;;;5015168;28;20450;-61
2022/10/28 03:23:49;;;;;;;6.10;5.60;;;;;;;;;;5014902;28;20533;-61
2022/10/28 03:26:18;;;;;;;6.73;6.13;;;;;;;;;;5014898;28;20454;-61
2022/10/28 03:28:45;;;;;;;10.17;6.00;;;;;;;;;;5014651;28;20457;-62
2022/10/28 03:31:11;;;;;;;6.53;6.03;;;;;;;;;;5014920;28;20824;-61
2022/10/28 03:33:38;;;;;;;6.63;5.30;;;;;;;;;;5014807;28;20457;-61
2022/10/28 03:36:05;;;;;;;6.27;5.60;;;;;;;;;;5014673;28;20486;-61
2022/10/28 03:38:35;;;;;;;6.30;5.67;;;;;;;;;;5014653;28;20752;-61
2022/10/28 03:41:02;;;;;;;6.80;6.10;;;;;;;;;;5014354;28;20458;-62
2022/10/28 03:43:30;;;;;;;7.90;6.50;;;;;;;;;;5014461;28;20480;-61
2022/10/28 03:45:57;;;;;;;7.10;6.55;;;;;;;;;;5014449;28;21040;-61
2022/10/28 03:48:24;;;;;;;7.63;6.93;;;;;;;;;;5014464;28;20199;-61
2022/10/28 03:50:52;;;;;;;7.93;7.23;;;;;;;;;;5014387;28;20454;-61
2022/10/28 03:53:19;;;;;;;9.77;6.70;;;;;;;;;;5014454;28;20450;-61
2022/10/28 03:55:51;;;;;;;7.50;6.80;;;;;;;;;;5014285;28;20573;-62
2022/10/28 03:58:18;;;;;;;7.07;6.47;;;;;;;;;;5014445;28;20460;-61
2022/10/28 04:00:48;;;;;;;8.13;6.63;;;;;;;;;;5014174;28;20450;-62
2022/10/28 04:03:15;;;;;;;6.53;5.93;;;;;;;;;;5014180;28;20454;-61
2022/10/28 04:05:42;;;;;;;9.32;6.30;;;;;;;;;;5014186;28;20458;-61
2022/10/28 04:08:09;;;;;;;6.63;5.53;;;;;;;;;;5013998;28;20565;-61
2022/10/28 04:10:36;;;;;;;8.87;6.00;;;;;;;;;;5014137;28;20450;-61
2022/10/28 04:13:04;;;;;;;8.50;6.70;;;;;;;;;;5014132;28;20456;-61
2022/10/28 04:15:31;;;;;;;7.47;6.88;;;;;;;;;;5013989;28;20478;-61
2022/10/28 04:17:59;;;;;;;7.47;6.70;;;;;;;;;;5013971;28;20482;-61
2022/10/28 04:20:27;;;;;;;8.70;6.87;;;;;;;;;;5013903;28;20476;-61
2022/10/28 04:22:54;;;;;;;6.80;6.30;;;;;;;;;;5013907;28;21024;-61
2022/10/28 04:25:23;;;;;;;7.57;6.68;;;;;;;;;;5013981;28;20806;-61
2022/10/28 04:27:50;;;;;;;8.43;6.63;;;;;;;;;;5013918;28;20202;-61
2022/10/28 04:30:17;;;;;;;6.83;6.23;;;;;;;;;;5013930;28;20454;-61
2022/10/28 04:32:44;;;;;;;9.40;6.63;;;;;;;;;;5014096;28;20796;-61
2022/10/28 04:35:13;;;;;;;6.57;5.97;;;;;;;;;;5013555;28;20584;-62
2022/10/28 04:37:40;;;;;;;6.33;5.73;;;;;;;;;;5013558;28;20938;-61
2022/10/28 04:40:08;;;;;;;9.83;5.83;;;;;;;;;;5013672;28;20549;-62
2022/10/28 04:42:34;;;;;;;7.50;6.80;;;;;;;;;;5013490;28;20450;-61
2022/10/28 04:45:01;;;;;;;6.40;5.90;;;;;;;;;;5013346;28;20569;-61
2022/10/28 04:47:28;;;;;;;6.30;5.70;;;;;;;;;;5013531;28;20909;-61
2022/10/28 04:49:55;;;;;;;9.90;7.17;;;;;;;;;;5013380;28;20453;-61
2022/10/28 04:52:23;;;;;;;8.00;7.03;;;;;;;;;;5013528;28;20533;-62
2022/10/28 04:54:50;;;;;;;7.40;6.80;;;;;;;;;;5013345;28;20453;-61
2022/10/28 04:57:17;;;;;;;7.40;6.40;;;;;;;;;;5013382;28;20536;-61
2022/10/28 04:59:45;;;;;;;7.57;6.80;;;;;;;;;;5013297;28;20544;-61
2022/10/28 05:02:12;;;;;;;7.63;6.83;;;;;;;;;;5013192;28;20195;-61
2022/10/28 05:04:39;;;;;;;8.53;6.90;;;;;;;;;;5013202;28;20461;-61
2022/10/28 05:07:06;;;;;;;6.63;6.07;;;;;;;;;;5013118;28;20553;-61
2022/10/28 05:09:34;;;;;;;8.67;6.87;;;;;;;;;;5013708;28;20234;-61
2022/10/28 05:12:01;;;;;;;6.43;5.63;;;;;;;;;;5013010;28;20975;-61
2022/10/28 05:14:28;;;;;;;8.03;6.90;;;;;;;;;;5012978;28;20478;-61
2022/10/28 05:16:55;;;;;;;7.20;6.50;;;;;;;;;;5012981;28;20577;-62
2022/10/28 05:19:22;;;;;;;7.13;6.13;;;;;;;;;;5013023;28;20450;-61
2022/10/28 05:21:48;;;;;;;9.00;6.07;;;;;;;;;;5013376;28;20545;-61
2022/10/28 05:24:15;;;;;;;7.35;6.65;;;;;;;;;;5013288;28;20534;-61
2022/10/28 05:26:44;;;;;;;8.13;7.00;;;;;;;;;;5013024;28;20229;-61
2022/10/28 05:29:10;;;;;;;7.03;6.43;;;;;;;;;;5013002;28;20545;-61
2022/10/28 05:31:37;;;;;;;10.73;6.67;;;;;;;;;;5012575;28;20540;-61
2022/10/28 05:34:04;;;;;;;7.33;6.70;;;;;;;;;;5012967;28;20450;-61
2022/10/28 05:36:31;;;;;;;7.13;5.90;;;;;;;;;;5013093;28;20486;-61
2022/10/28 05:38:58;;;;;;;6.87;6.37;;;;;;;;;;5012808;28;20450;-61
2022/10/28 05:41:25;;;;;;;8.23;7.00;;;;;;;;;;5012777;28;20537;-61
2022/10/28 05:43:53;;;;;;;7.03;6.40;;;;;;;;;;5012670;28;20565;-61
2022/10/28 05:46:21;;;;;;;8.23;6.53;;;;;;;;;;5012916;28;20457;-61
2022/10/28 05:48:48;;;;;;;7.73;6.70;;;;;;;;;;5012883;28;20558;-61
2022/10/28 05:51:14;;;;;;;7.67;6.97;;;;;;;;;;5012769;28;20572;-61
2022/10/28 05:53:43;;;;;;;8.10;7.30;;;;;;;;;;5012793;28;20476;-61
2022/10/28 05:56:10;;;;;;;7.95;6.78;;;;;;;;;;5012635;28;20780;-61
2022/10/28 05:58:36;;;;;;;7.40;6.07;;;;;;;;;;5012584;28;20194;-62
2022/10/28 06:01:07;;;;;;;8.50;7.60;;;;;;;;;;5012752;28;20446;-62
2022/10/28 06:03:35;;;;;;;6.93;6.38;;;;;;;;;;5012774;28;20449;-61
2022/10/28 06:06:02;;;;;;;8.55;7.75;;;;;;;;;;5012530;28;20191;-61
2022/10/28 06:08:29;;;;;;;8.47;7.37;;;;;;;;;;5012553;28;20187;-61
2022/10/28 06:10:56;;;;;;;8.30;7.30;;;;;;;;;;5012568;28;20504;-61
2022/10/28 06:13:23;;;;;;;7.67;6.83;;;;;;;;;;5012407;28;20497;-61
2022/10/28 06:15:53;;;;;;;9.18;6.93;;;;;;;;;;5012660;28;20485;-61
2022/10/28 06:18:22;;;;;;;7.90;7.03;;;;;;;;;;5015978;28;20290;-61
2022/10/28 06:20:52;;;;;;;7.50;6.90;;;;;;;;;;5016069;28;20538;-61
2022/10/28 06:23:19;;;;;;;8.20;7.27;;;;;;;;;;5015907;28;20786;-61
2022/10/28 06:25:46;;;;;;;12.93;7.93;;;;;;;;;;5015943;28;20444;-61
2022/10/28 06:28:13;;;;;;;8.33;7.43;;;;;;;;;;5015944;28;20545;-61
2022/10/28 06:30:40;;;;;;;11.60;6.93;;;;;;;;;;5015814;28;20450;-61
2022/10/28 06:33:07;;;;;;;12.57;8.17;;;;;;;;;;5015785;28;20223;-61
2022/10/28 06:35:35;;;;;;;8.67;7.97;;;;;;;;;;5015592;28;20894;-61
2022/10/28 06:38:02;;;;;;;10.17;9.13;;;;;;;;;;5015623;28;20549;-61
2022/10/28 06:40:29;;;;;;;9.73;7.60;;;;;;;;;;5015538;28;20537;-61
2022/10/28 06:42:59;;;;;;;8.10;7.47;;;;;;;;;;5015954;28;20451;-61
2022/10/28 06:45:26;;;;;;;8.80;7.53;;;;;;;;;;5015704;28;20557;-61
2022/10/28 06:47:55;;;;;;;12.48;7.97;;;;;;;;;;5015574;28;20546;-61
2022/10/28 06:50:22;;;;;;;8.53;7.40;;;;;;;;;;5015657;28;20202;-61
2022/10/28 06:52:51;;;;;;;12.03;9.70;;;;;;;;;;5015551;28;20886;-62
2022/10/28 06:55:18;;;;;;;10.05;8.05;;;;;;;;;;5015461;28;20449;-61
2022/10/28 06:57:44;;;;;;;8.13;7.33;;;;;;;;;;5015397;28;20196;-62
2022/10/28 07:00:12;;;;;;;8.50;7.70;;;;;;;;;;5015177;28;20961;-61
2022/10/28 07:02:39;;;;;;;7.43;6.67;;;;;;;;;;5015236;28;20195;-61
2022/10/28 07:05:06;;;;;;;8.83;8.03;;;;;;;;;;5015006;28;20885;-61
2022/10/28 07:07:36;;;;;;;8.03;7.10;;;;;;;;;;5015178;28;20544;-61
2022/10/28 07:10:04;;;;;;;10.83;7.10;;;;;;;;;;5015085;28;20462;-62
2022/10/28 07:12:31;;;;;;;13.20;8.63;;;;;;;;;;5015322;28;20446;-61
2022/10/28 07:14:58;;;;;;;8.70;7.80;;;;;;;;;;5014948;28;20486;-61
2022/10/28 07:17:25;;;;;;;7.83;6.60;;;;;;;;;;5014722;28;21285;-61
2022/10/28 07:19:52;;;;;;;9.70;7.60;;;;;;;;;;5014926;28;20453;-61
2022/10/28 07:22:18;;;;;;;7.93;7.23;;;;;;;;;;5014977;28;20538;-62
2022/10/28 07:24:45;;;;;;;12.70;8.07;;;;;;;;;;5014758;28;20540;-61
2022/10/28 07:27:14;;;;;;;11.97;8.27;;;;;;;;;;5014815;28;20456;-61
2022/10/28 07:29:41;;;;;;;11.83;7.13;;;;;;;;;;5014121;28;20901;-61
2022/10/28 07:32:07;;;;;;;9.07;6.80;;;;;;;;;;5014626;28;20512;-61
2022/10/28 07:34:34;;;;;;;7.40;6.50;;;;;;;;;;5014407;28;20460;-61
2022/10/28 07:37:01;;;;;;;7.60;5.70;;;;;;;;;;5014562;28;20482;-61
2022/10/28 07:39:28;;;;;;;11.13;5.70;;;;;;;;;;5014504;28;20453;-61
2022/10/28 07:41:55;;;;;;;5.60;5.10;;;;;;;;;;5014496;28;20461;-61
2022/10/28 07:44:24;;;;;;;6.93;5.53;;;;;;;;;;5014255;28;20927;-61
2022/10/28 07:46:50;;;;;;;9.20;5.17;;;;;;;;;;5014184;28;20964;-62
2022/10/28 07:49:17;;;;;;;7.77;5.03;;;;;;;;;;5014309;28;20450;-61
2022/10/28 07:51:44;;;;;;;6.17;5.57;;;;;;;;;;5014253;28;20450;-62
2022/10/28 07:54:11;;;;;;;10.27;5.47;;;;;;;;;;5014267;28;20462;-61
2022/10/28 07:56:38;;;;;;;7.27;4.90;;;;;;;;;;5014271;28;20513;-62
2022/10/28 07:59:05;;;;;;;11.57;5.00;;;;;;;;;;5014309;28;20457;-61
2022/10/28 08:01:34;;;;;;;4.75;4.45;;;;;;;;;;5014129;28;20508;-62
2022/10/28 08:04:01;;;;;;;4.90;4.40;;;;;;;;;;5014030;28;20233;-61
2022/10/28 08:06:28;;;;;;;7.47;5.50;;;;;;;;;;5013981;28;20948;-61
2022/10/28 08:08:56;;;;;;;5.95;5.35;;;;;;;;;;5014201;28;20450;-61
2022/10/28 08:11:24;;;;;;;5.57;5.03;;;;;;;;;;5014041;28;20202;-61
2022/10/28 08:13:51;;;;;;;8.30;5.07;;;;;;;;;;5014026;28;20243;-60
2022/10/28 08:16:19;;;;;;;5.28;4.78;;;;;;;;;;5013681;28;20215;-62
2022/10/28 08:18:47;;;;;;;8.33;5.07;;;;;;;;;;5014098;28;20190;-61
2022/10/28 08:21:15;;;;;;;6.47;4.10;;;;;;;;;;5014165;28;20849;-61
2022/10/28 08:23:45;;;;;;;7.03;4.80;;;;;;;;;;5013860;28;20978;-61
2022/10/28 08:26:12;;;;;;;7.33;4.60;;;;;;;;;;5013933;28;20790;-61
2022/10/28 08:28:39;;;;;;;5.10;4.60;;;;;;;;;;5013625;28;20446;-62
2022/10/28 08:31:08;;;;;;;6.53;4.87;;;;;;;;;;5013915;28;20513;-61
2022/10/28 08:33:36;;;;;;;4.77;4.37;;;;;;;;;;5013806;28;20537;-61
2022/10/28 08:36:05;;;;;;;5.60;4.30;;;;;;;;;;5013841;28;20478;-61
2022/10/28 08:38:32;;;;;;;6.80;3.80;;;;;;;;;;5013718;28;20453;-62
2022/10/28 08:41:02;;;;;;;4.87;4.43;;;;;;;;;;5012592;28;20486;-62
2022/10/28 08:43:36;;;;;;;8.40;5.30;;;;;;;;;;5013266;28;20553;-61
2022/10/28 08:46:05;;;;;;;6.63;4.80;;;;;;;;;;5013489;28;20454;-61
2022/10/28 08:48:34;;;;;;;9.67;4.87;;;;;;;;;;5013455;28;20959;-61
2022/10/28 08:51:05;;;;;;;7.40;4.07;;;;;;;;;;5013456;28;20499;-62
2022/10/28 08:53:36;;;;;;;7.90;5.10;;;;;;;;;;5013397;28;20446;-61
2022/10/28 08:56:08;;;;;;;7.57;4.47;;;;;;;;;;5013530;28;20802;-62
2022/10/28 08:58:37;;;;;;;12.73;5.10;;;;;;;;;;5013553;28;20454;-62
2022/10/28 09:01:05;;;;;;;5.88;5.25;;;;;;;;;;5013210;28;20450;-62
2022/10/28 09:03:34;;;;;;;9.70;5.10;;;;;;;;;;5013484;28;20187;-62
2022/10/28 09:06:02;;;;;;;4.80;4.40;;;;;;;;;;5013075;28;20461;-61
2022/10/28 09:08:31;;;;;;;5.90;4.77;;;;;;;;;;5013403;28;20465;-63
2022/10/28 09:11:07;;;;;;;5.33;4.43;;;;;;;;;;5013315;28;20493;-62
2022/10/28 09:13:41;;;;;;;4.93;4.43;;;;;;;;;;5013136;28;20446;-63
2022/10/28 09:16:12;;;;;;;4.43;3.93;;;;;;;;;;5013003;28;20194;-63
2022/10/28 09:18:49;;;;;;;4.83;3.70;;;;;;;;;;5012967;28;20450;-62
2022/10/28 09:21:19;;;;;;;5.70;5.10;;;;;;;;;;5013211;28;20536;-63
2022/10/28 09:23:50;;;;;;;7.40;5.30;;;;;;;;;;5013124;28;20461;-61
2022/10/28 09:26:20;;;;;;;5.23;4.70;;;;;;;;;;5012867;28;20461;-61
2022/10/28 09:28:51;;;;;;;5.47;4.90;;;;;;;;;;5012977;28;20504;-60
2022/10/28 09:31:23;;;;;;;7.47;3.77;;;;;;;;;;5012969;28;20887;-62
2022/10/28 09:33:54;;;;;;;6.37;3.90;;;;;;;;;;5012787;28;20946;-61
2022/10/28 09:36:25;;;;;;;5.90;4.30;;;;;;;;;;5012906;28;20537;-60
2022/10/28 09:38:53;;;;;;;4.13;3.47;;;;;;;;;;5012965;28;20549;-60
2022/10/28 09:41:23;;;;;;;4.90;4.00;;;;;;;;;;5012845;28;20253;-61
2022/10/28 09:43:53;;;;;;;8.13;4.20;;;;;;;;;;5012536;28;21058;-61
2022/10/28 09:46:21;;;;;;;5.97;4.20;;;;;;;;;;5012715;28;20485;-61
2022/10/28 09:48:49;;;;;;;8.73;3.47;;;;;;;;;;5012982;28;20483;-61
2022/10/28 09:51:24;;;;;;;4.00;3.60;;;;;;;;;;5013113;28;20494;-61
2022/10/28 09:53:53;;;;;;;5.07;3.47;;;;;;;;;;5016599;28;20544;-60
2022/10/28 09:56:21;;;;;;;7.90;4.27;;;;;;;;;;5016395;28;20450;-60
2022/10/28 09:58:48;;;;;;;6.82;4.00;;;;;;;;;;5016588;28;20457;-61
2022/10/28 10:01:17;;;;;;;6.13;4.20;;;;;;;;;;5016610;28;20278;-61
2022/10/28 10:03:44;;;;;;;8.27;3.95;;;;;;;;;;5016571;28;20848;-60
2022/10/28 10:06:13;;;;;;;6.43;4.17;;;;;;;;;;5016366;28;20199;-61
2022/10/28 10:08:40;;;;;;;4.07;3.60;;;;;;;;;;5016295;28;20541;-61
2022/10/28 10:11:12;;;;;;;5.07;3.50;;;;;;;;;;5016487;28;20544;-61
2022/10/28 10:13:43;;;;;;;4.83;3.80;;;;;;;;;;5016570;28;20508;-61
2022/10/28 10:16:14;;;;;;;10.43;4.10;;;;;;;;;;5016387;28;20904;-61
2022/10/28 10:18:45;;;;;;;14.17;4.00;;;;;;;;;;5015935;28;20573;-61
2022/10/28 10:21:13;;;;;;;5.90;4.27;;;;;;;;;;5015958;28;20454;-61
2022/10/28 10:23:40;;;;;;;4.97;3.70;;;;;;;;;;5016029;28;20449;-61
2022/10/28 10:26:08;;;;;;;5.50;3.70;;;;;;;;;;5016033;28;20885;-63
2022/10/28 10:28:36;;;;;;;6.00;4.47;;;;;;;;;;5015852;28;20501;-62
2022/10/28 10:31:06;;;;;;;8.00;4.50;;;;;;;;;;5015877;28;20445;-61
2022/10/28 10:33:34;;;;;;;5.93;4.43;;;;;;;;;;5015787;28;20450;-61
2022/10/28 10:36:03;;;;;;;4.50;3.33;;;;;;;;;;5015992;28;20451;-60
2022/10/28 10:38:30;;;;;;;9.47;3.97;;;;;;;;;;5015841;28;20569;-61
2022/10/28 10:40:58;;;;;;;6.77;5.27;;;;;;;;;;5015829;28;20454;-61
2022/10/28 10:43:30;;;;;;;6.13;4.73;;;;;;;;;;5015349;28;20466;-60
2022/10/28 10:46:01;;;;;;;7.13;5.30;;;;;;;;;;5015490;28;20482;-61
2022/10/28 10:48:31;;;;;;;4.23;3.83;;;;;;;;;;5015366;28;20462;-61
2022/10/28 10:50:58;;;;;;;7.13;3.60;;;;;;;;;;5015881;28;20634;-61
2022/10/28 10:53:26;;;;;;;5.80;3.80;;;;;;;;;;5015578;28;20443;-61
2022/10/28 10:55:59;;;;;;;8.70;5.40;;;;;;;;;;5015674;28;20446;-62
2022/10/28 10:58:28;;;;;;;8.73;5.13;;;;;;;;;;5015297;28;20489;-62
2022/10/28 11:00:56;;;;;;;4.00;3.23;;;;;;;;;;5015557;28;20458;-62
2022/10/28 11:03:25;;;;;;;7.43;3.97;;;;;;;;;;5014290;28;20452;-62
2022/10/28 11:05:55;;;;;;;5.00;3.60;;;;;;;;;;5015573;28;20933;-62
2022/10/28 11:08:28;;;;;;;5.90;3.50;;;;;;;;;;5015252;28;20458;-62
2022/10/28 11:11:12;;;;;;;5.23;2.93;;;;;;;;;;5015300;28;20542;-61
2022/10/28 11:13:41;;;;;;;3.90;3.27;;;;;;;;;;5015465;28;20510;-61
2022/10/28 11:16:17;;;;;;;11.70;3.40;;;;;;;;;;5015064;28;20459;-61
2022/10/28 11:18:45;;;;;;;3.37;3.10;;;;;;;;;;5015122;28;20845;-61
2022/10/28 11:21:19;;;;;;;6.13;3.50;;;;;;;;;;5015028;28;20495;-62
2022/10/28 11:23:52;;;;;;;7.40;4.30;;;;;;;;;;5014773;28;20492;-61
2022/10/28 11:26:20;;;;;;;7.20;3.85;;;;;;;;;;5014732;28;20450;-61
2022/10/28 11:28:52;;;;;;;6.40;3.83;;;;;;;;;;5015190;28;20195;-63
2022/10/28 11:31:27;;;;;;;6.03;3.60;;;;;;;;;;5014790;28;20541;-61
2022/10/28 11:33:57;;;;;;;4.80;3.70;;;;;;;;;;5014787;28;20540;-61
2022/10/28 11:36:28;;;;;;;3.90;3.60;;;;;;;;;;5014797;28;20488;-62
2022/10/28 11:39:19;;;;;;;4.50;3.40;;;;;;;;;;5014768;28;20571;-61
2022/10/28 11:42:03;;;;;;;5.55;3.20;;;;;;;;;;5014663;28;20454;-61
2022/10/28 11:44:39;;;;;;;6.50;3.40;;;;;;;;;;5014201;28;20265;-61
2022/10/28 11:47:11;;;;;;;4.07;3.03;;;;;;;;;;5014810;28;20540;-61
2022/10/28 11:50:01;;;;;;;4.00;2.83;;;;;;;;;;5014555;28;20223;-61
2022/10/28 11:52:35;;;;;;;6.23;3.30;;;;;;;;;;5014430;28;20500;-63
2022/10/28 11:55:08;;;;;;;4.37;3.30;;;;;;;;;;5014261;28;20483;-61
2022/10/28 11:57:44;;;;;;;6.43;3.73;;;;;;;;;;5014675;28;20480;-61
2022/10/28 12:00:32;;;;;;;9.53;3.70;;;;;;;;;;5014588;28;20532;-61
2022/10/28 12:03:04;;;;;;;8.20;3.57;;;;;;;;;;5009401;28;20447;-61
2022/10/28 12:05:34;;;;;;;4.63;3.40;;;;;;;;;;5014032;28;20446;-61
2022/10/28 12:08:16;;;;;;;4.63;2.87;;;;;;;;;;5014311;28;20442;-61
2022/10/28 12:10:53;;;;;;;6.73;3.80;;;;;;;;;;5011853;28;20486;-61
2022/10/28 12:13:25;;;;;;;3.55;3.22;;;;;;;;;;5014022;28;20542;-61
2022/10/28 12:15:55;;;;;;;9.23;4.00;;;;;;;;;;5013833;28;20199;-61
2022/10/28 12:18:25;;;;;;;8.10;3.07;;;;;;;;;;5014038;28;20521;-61
2022/10/28 12:20:55;;;;;;;9.70;4.53;;;;;;;;;;5013852;28;20451;-61
2022/10/28 12:23:23;;;;;;;5.53;2.73;;;;;;;;;;5013792;28;20937;-61
2022/10/28 12:25:53;;;;;;;7.20;2.90;;;;;;;;;;5013766;28;20450;-61
2022/10/28 12:28:22;;;;;;;4.93;3.10;;;;;;;;;;5013466;28;20455;-62
2022/10/28 12:30:50;;;;;;;9.10;3.00;;;;;;;;;;5013816;28;20485;-61
2022/10/28 12:33:18;;;;;;;4.53;3.00;;;;;;;;;;5009694;28;20952;-61
2022/10/28 12:35:48;;;;;;;6.50;2.53;;;;;;;;;;4994336;28;20461;-61
2022/10/28 12:38:18;;;;;;;5.53;3.17;;;;;;;;;;5004883;28;20529;-61
2022/10/28 12:40:48;;;;;;;4.00;3.13;;;;;;;;;;5013372;28;20542;-61
2022/10/28 12:43:20;;;;;;;5.40;3.07;;;;;;;;;;5013566;28;20549;-61
2022/10/28 12:45:49;;;;;;;5.20;3.30;;;;;;;;;;5013705;28;20545;-61
2022/10/28 12:48:18;;;;;;;9.85;3.10;;;;;;;;;;5013224;28;20537;-61
2022/10/28 12:50:49;;;;;;;3.70;2.60;;;;;;;;;;5013357;28;20192;-61
2022/10/28 12:53:23;;;;;;;6.60;3.00;;;;;;;;;;5013289;28;20541;-62
2022/10/28 12:55:52;;;;;;;3.37;3.07;;;;;;;;;;5013561;28;20454;-64
2022/10/28 12:58:24;;;;;;;4.75;3.35;;;;;;;;;;5013058;28;20513;-61
2022/10/28 13:00:54;;;;;;;4.67;2.50;;;;;;;;;;5013325;28;20261;-61
2022/10/28 13:03:21;;;;;;;4.53;3.30;;;;;;;;;;5013115;28;20533;-61
2022/10/28 13:05:50;;;;;;;6.67;2.83;;;;;;;;;;5013388;28;20709;-61
2022/10/28 13:08:27;;;;;;;12.33;3.30;;;;;;;;;;5013262;28;20452;-61
2022/10/28 13:10:58;;;;;;;6.27;2.80;;;;;;;;;;5013075;28;20456;-61
2022/10/28 13:13:34;;;;;;;6.63;3.00;;;;;;;;;;5013265;28;20888;-61
2022/10/28 13:16:11;;;;;;;8.57;3.40;;;;;;;;;;5012706;28;20516;-61
2022/10/28 13:18:52;;;;;;;8.13;3.85;;;;;;;;;;5013398;28;20576;-61
2022/10/28 13:21:25;;;;;;;5.33;2.67;;;;;;;;;;5013231;28;20617;-61
2022/10/28 13:23:54;;;;;;;3.40;2.70;;;;;;;;;;5013395;28;20456;-61
2022/10/28 13:26:22;;;;;;;5.37;2.90;;;;;;;;;;5013417;28;20450;-61
2022/10/28 13:28:52;;;;;;;5.50;2.80;;;;;;;;;;5016986;28;20544;-61
2022/10/28 13:31:19;;;;;;;6.47;3.30;;;;;;;;;;5017043;28;20446;-61
2022/10/28 13:33:48;;;;;;;5.93;3.33;;;;;;;;;;5017324;28;20529;-61
2022/10/28 13:36:19;;;;;;;8.18;3.08;;;;;;;;;;5016549;28;21023;-61
2022/10/28 13:38:51;;;;;;;6.30;3.00;;;;;;;;;;5016896;28;20221;-61
2022/10/28 13:41:34;;;;;;;6.33;3.00;;;;;;;;;;5016874;28;20484;-61
2022/10/28 13:44:23;;;;;;;6.20;3.08;;;;;;;;;;5016960;28;20573;-61
2022/10/28 13:47:20;;;;;;;4.37;2.93;;;;;;;;;;5016742;28;20191;-61
2022/10/28 13:50:06;;;;;;;6.10;3.10;;;;;;;;;;5016968;28;20465;-62
2022/10/28 13:52:33;;;;;;;6.00;3.10;;;;;;;;;;5016701;28;20489;-61
2022/10/28 13:55:18;;;;;;;7.67;3.00;;;;;;;;;;5016646;28;20198;-61
2022/10/28 13:57:46;;;;;;;3.53;2.90;;;;;;;;;;5016404;28;20460;-61
2022/10/28 14:00:35;;;;;;;9.73;3.47;;;;;;;;;;5016715;28;20454;-61
2022/10/28 14:03:02;;;;;;;9.77;3.40;;;;;;;;;;5016587;28;20829;-61
2022/10/28 14:05:44;;;;;;;6.83;3.30;;;;;;;;;;5016417;28;20836;-61
2022/10/28 14:08:19;;;;;;;7.17;3.10;;;;;;;;;;5015778;28;20474;-61
2022/10/28 14:10:57;;;;;;;12.33;4.17;;;;;;;;;;5016400;28;20516;-61
2022/10/28 14:13:24;;;;;;;5.60;3.43;;;;;;;;;;5016131;28;20564;-61
2022/10/28 14:16:10;;;;;;;5.73;2.77;;;;;;;;;;5016253;28;20487;-61
2022/10/28 14:18:37;;;;;;;6.37;3.93;;;;;;;;;;5015998;28;20528;-61
2022/10/28 14:21:04;;;;;;;4.70;3.03;;;;;;;;;;5016178;28;20856;-61
2022/10/28 14:24:02;;;;;;;3.90;3.50;;;;;;;;;;5016192;28;20853;-61
2022/10/28 14:26:29;;;;;;;7.00;3.30;;;;;;;;;;5015998;28;20472;-61
2022/10/28 14:28:56;;;;;;;7.37;3.30;;;;;;;;;;5015603;28;20914;-61
2022/10/28 14:31:42;;;;;;;4.75;3.00;;;;;;;;;;5015758;28;20968;-61
2022/10/28 14:34:34;;;;;;;5.90;3.47;;;;;;;;;;5015938;28;20192;-61
2022/10/28 14:37:06;;;;;;;11.03;3.80;;;;;;;;;;5016137;28;20456;-61
2022/10/28 14:39:38;;;;;;;7.20;3.10;;;;;;;;;;5014275;28;20478;-61
2022/10/28 14:42:14;;;;;;;5.27;2.90;;;;;;;;;;5016097;28;20452;-61
2022/10/28 14:44:46;;;;;;;6.47;4.27;;;;;;;;;;5015668;28;20478;-61
2022/10/28 14:47:25;;;;;;;4.88;2.90;;;;;;;;;;5015617;28;20862;-61
2022/10/28 14:49:59;;;;;;;12.20;3.30;;;;;;;;;;5015430;28;20199;-61
2022/10/28 14:52:29;;;;;;;5.43;3.43;;;;;;;;;;5015785;28;20196;-61
2022/10/28 14:54:57;;;;;;;9.43;4.40;;;;;;;;;;5015608;28;20541;-61
2022/10/28 14:57:27;;;;;;;11.60;3.87;;;;;;;;;;5015431;28;20454;-61
2022/10/28 14:59:55;;;;;;;14.60;3.33;;;;;;;;;;5015293;28;20576;-61